Time;durP1;ratioP1;P1;durP2;ratioP2;P2;SDS_P1;SDS_P2;PMS_P1;PMS_P2;Temp;Humidity;BMP_temperature;BMP_pressure;BME280_temperature;BME280_humidity;BME280_pressure;Samples;Min_cycle;Max_cycle;Signal;HPM_P1;HPM_P2
2022/11/24 00:01:08;;;;;;;14.18;2.97;;;8.90;99.90;;;;;;4959618;28;19965;-90
2022/11/24 00:03:34;;;;;;;10.02;2.65;;;;;;;;;;4954281;28;20601;-88
2022/11/24 00:06:18;;;;;;;16.80;3.40;;;8.90;99.90;;;;;;4959077;28;20031;-90
2022/11/24 00:08:45;;;;;;;15.40;3.10;;;10.80;99.90;;;;;;4958406;28;20026;-90
2022/11/24 00:11:23;;;;;;;15.27;3.33;;;10.30;99.90;;;;;;4956429;28;20501;-90
2022/11/24 00:13:49;;;;;;;14.02;3.00;;;8.60;99.90;;;;;;4957820;28;20038;-90
2022/11/24 00:16:16;;;;;;;11.10;2.65;;;8.30;99.90;;;;;;4954886;28;20031;-87
2022/11/24 00:18:45;;;;;;;13.60;3.75;;;8.40;99.90;;;;;;4955044;28;20517;-89
2022/11/24 00:21:11;;;;;;;16.98;5.25;;;8.50;99.90;;;;;;4970041;28;20382;-91
2022/11/24 00:23:38;;;;;;;14.20;3.10;;;;;;;;;;4954714;28;20037;-88
2022/11/24 00:26:09;;;;;;;10.55;2.67;;;8.30;99.90;;;;;;4975061;28;20034;-90
2022/11/24 00:28:36;;;;;;;11.82;2.97;;;9.20;99.90;;;;;;4979747;28;20030;-91
2022/11/24 00:31:02;;;;;;;16.52;3.00;;;8.40;99.90;;;;;;4980823;28;20027;-90
2022/11/24 00:33:27;;;;;;;14.60;3.10;;;7.80;99.90;;;;;;4984866;28;20030;-90
2022/11/24 00:35:58;;;;;;;12.30;2.83;;;11.00;99.90;;;;;;4978093;28;20030;-91
2022/11/24 00:38:24;;;;;;;12.73;3.50;;;8.90;99.90;;;;;;4954213;28;20039;-89
2022/11/24 00:40:50;;;;;;;11.93;2.80;;;8.30;99.90;;;;;;4958444;28;20066;-90
2022/11/24 00:43:16;;;;;;;11.90;2.55;;;8.40;99.90;;;;;;4976037;28;20571;-90
2022/11/24 00:45:42;;;;;;;18.65;3.53;;;;;;;;;;4959364;28;20035;-91
2022/11/24 00:48:08;;;;;;;13.52;2.75;;;8.40;99.90;;;;;;4959569;28;20026;-89
2022/11/24 00:50:34;;;;;;;15.77;3.28;;;;;;;;;;4960618;28;20111;-90
2022/11/24 00:52:59;;;;;;;12.48;3.10;;;8.30;99.90;;;;;;4961072;28;20027;-89
2022/11/24 00:55:25;;;;;;;16.13;3.53;;;11.50;99.90;;;;;;4960166;28;20035;-90
2022/11/24 00:57:51;;;;;;;11.38;2.90;;;10.70;99.90;;;;;;4975107;28;20552;-89
2022/11/24 01:00:17;;;;;;;18.27;3.67;;;8.40;99.90;;;;;;4961917;28;20572;-88
2022/11/24 01:02:43;;;;;;;11.57;2.92;;;8.40;99.90;;;;;;4950224;28;20031;-89
2022/11/24 01:05:09;;;;;;;11.85;3.00;;;8.40;99.90;;;;;;4960143;28;20052;-90
2022/11/24 01:07:34;;;;;;;17.38;2.70;;;8.40;99.90;;;;;;4985143;28;20042;-88
2022/11/24 01:10:00;;;;;;;16.77;3.05;;;10.50;99.90;;;;;;4963467;28;20019;-88
2022/11/24 01:12:26;;;;;;;12.82;3.22;;;8.40;99.90;;;;;;4964311;28;20031;-88
2022/11/24 01:14:52;;;;;;;14.95;2.78;;;11.30;99.90;;;;;;4970118;28;20448;-87
2022/11/24 01:17:17;;;;;;;13.02;2.85;;;9.20;99.90;;;;;;4971072;28;20063;-86
2022/11/24 01:19:46;;;;;;;16.70;2.80;;;;;;;;;;4973979;28;20033;-88
2022/11/24 01:22:15;;;;;;;19.60;3.10;;;8.30;99.90;;;;;;4968191;28;20027;-87
2022/11/24 01:24:40;;;;;;;11.20;2.90;;;10.80;99.90;;;;;;4978825;28;20464;-88
2022/11/24 01:27:06;;;;;;;14.82;3.33;;;8.30;99.90;;;;;;4970016;28;20073;-90
2022/11/24 01:29:32;;;;;;;11.65;2.70;;;9.90;99.90;;;;;;4977337;28;20061;-89
2022/11/24 01:31:59;;;;;;;11.32;2.88;;;6.60;99.90;;;;;;4970698;28;20022;-89
2022/11/24 01:34:25;;;;;;;14.27;3.10;;;9.60;99.90;;;;;;4971798;28;20026;-88
2022/11/24 01:36:51;;;;;;;14.00;3.45;;;;;;;;;;4964413;28;20026;-90
2022/11/24 01:39:17;;;;;;;15.52;3.10;;;;;;;;;;4966272;28;20019;-90
2022/11/24 01:41:43;;;;;;;13.98;3.05;;;8.00;99.90;;;;;;4973828;28;20082;-85
2022/11/24 01:44:26;;;;;;;14.80;3.88;;;10.70;99.90;;;;;;4952095;28;20094;-86
2022/11/24 01:47:12;;;;;;;13.40;2.50;;;7.90;99.90;;;;;;4962409;28;20038;-88
2022/11/24 01:49:45;;;;;;;14.38;2.95;;;7.90;99.90;;;;;;4964345;28;20025;-85
2022/11/24 01:52:17;;;;;;;15.35;3.10;;;7.90;99.90;;;;;;4969490;28;20027;-84
2022/11/24 01:54:53;;;;;;;16.42;2.88;;;9.10;99.90;;;;;;4966456;28;20047;-86
2022/11/24 01:57:24;;;;;;;23.92;4.50;;;9.00;99.90;;;;;;4985514;28;20037;-85
2022/11/24 01:59:57;;;;;;;18.30;3.00;;;10.30;99.90;;;;;;4987420;28;20030;-87
2022/11/24 02:02:26;;;;;;;13.57;2.60;;;7.90;99.90;;;;;;4985481;28;20033;-83
2022/11/24 02:04:53;;;;;;;21.42;4.43;;;10.40;99.90;;;;;;4986307;28;20050;-82
2022/11/24 02:07:19;;;;;;;13.23;2.83;;;;;;;;;;4970410;28;20043;-86
2022/11/24 02:09:54;;;;;;;14.98;2.78;;;8.00;99.90;;;;;;4992751;28;20022;-83
2022/11/24 02:12:25;;;;;;;8.88;2.35;;;11.10;99.90;;;;;;4984097;28;20019;-89
2022/11/24 02:14:55;;;;;;;13.55;2.90;;;7.90;99.90;;;;;;4979909;28;20083;-89
2022/11/24 02:17:21;;;;;;;15.05;2.95;;;10.30;99.90;;;;;;4975503;28;20095;-89
2022/11/24 02:19:56;;;;;;;14.35;2.95;;;7.80;99.90;;;;;;4996064;28;20038;-87
2022/11/24 02:22:22;;;;;;;19.13;3.33;;;;;;;;;;4976487;28;20019;-87
2022/11/24 02:25:21;;;;;;;15.20;3.17;;;7.80;99.90;;;;;;4977137;28;20014;-89
2022/11/24 02:27:46;;;;;;;16.75;3.60;;;7.80;99.90;;;;;;4977311;28;20023;-88
2022/11/24 02:30:12;;;;;;;13.98;3.15;;;;;;;;;;4979251;28;20014;-89
2022/11/24 02:32:40;;;;;;;14.32;2.97;;;7.80;99.90;;;;;;4994035;28;20014;-87
2022/11/24 02:35:10;;;;;;;16.63;3.03;;;7.80;99.90;;;;;;4987596;28;20090;-87
2022/11/24 02:37:36;;;;;;;15.97;3.27;;;;;;;;;;4971702;28;20015;-89
2022/11/24 02:40:03;;;;;;;19.48;3.80;;;7.80;99.90;;;;;;4991482;28;20278;-90
2022/11/24 02:42:34;;;;;;;15.40;3.80;;;7.80;99.90;;;;;;4978215;28;20031;-88
2022/11/24 02:45:01;;;;;;;18.70;3.58;;;;;;;;;;4978399;28;20018;-89
2022/11/24 02:47:27;;;;;;;17.77;3.92;;;;;;;;;;4981762;28;20027;-88
2022/11/24 02:49:52;;;;;;;10.40;3.20;;;7.70;99.90;;;;;;4982694;28;20026;-90
2022/11/24 02:52:18;;;;;;;16.75;3.28;;;;;;;;;;4981446;28;20019;-89
2022/11/24 02:54:44;;;;;;;12.48;3.45;;;7.70;99.90;;;;;;4994131;28;20018;-89
2022/11/24 02:57:10;;;;;;;15.38;3.63;;;;;;;;;;4996437;28;20015;-90
2022/11/24 02:59:36;;;;;;;14.85;3.58;;;7.70;99.90;;;;;;4992234;28;20026;-90
2022/11/24 03:02:03;;;;;;;14.32;3.35;;;10.20;99.90;;;;;;4972678;28;20094;-89
2022/11/24 03:04:28;;;;;;;16.15;3.03;;;8.90;99.90;;;;;;4985333;28;20023;-89
2022/11/24 03:06:54;;;;;;;15.35;3.40;;;7.30;99.90;;;;;;4976520;28;20174;-90
2022/11/24 03:09:20;;;;;;;13.15;2.95;;;7.70;99.90;;;;;;4992144;28;20030;-89
2022/11/24 03:11:45;;;;;;;12.10;2.80;;;7.80;99.90;;;;;;4975214;28;20055;-90
2022/11/24 03:14:11;;;;;;;15.95;3.30;;;;;;;;;;4990170;28;20050;-88
2022/11/24 03:16:37;;;;;;;21.05;3.58;;;7.80;99.90;;;;;;4993340;28;20038;-90
2022/11/24 03:19:03;;;;;;;19.65;4.25;;;;;;;;;;4957801;28;20043;-89
2022/11/24 03:21:29;;;;;;;19.42;4.32;;;7.70;99.90;;;;;;4993239;28;20050;-87
2022/11/24 03:23:55;;;;;;;23.13;4.53;;;7.70;99.90;;;;;;4977507;28;20039;-89
2022/11/24 03:26:22;;;;;;;16.77;3.58;;;9.30;99.90;;;;;;4979648;28;20027;-89
2022/11/24 03:28:48;;;;;;;17.13;3.83;;;8.20;99.90;;;;;;4977383;28;20120;-88
2022/11/24 03:31:13;;;;;;;14.82;3.83;;;;;;;;;;4977216;28;20032;-87
2022/11/24 03:33:39;;;;;;;20.88;4.18;;;7.80;99.90;;;;;;4976773;28;20015;-91
2022/11/24 03:36:06;;;;;;;18.17;3.60;;;9.80;99.90;;;;;;4976604;28;20018;-88
2022/11/24 03:38:32;;;;;;;19.10;3.83;;;7.80;99.90;;;;;;4986721;28;20015;-89
2022/11/24 03:40:58;;;;;;;24.40;4.10;;;9.70;99.90;;;;;;4991153;28;20031;-87
2022/11/24 03:43:24;;;;;;;16.50;3.40;;;;;;;;;;4990382;28;20035;-89
2022/11/24 03:45:50;;;;;;;18.38;3.80;;;;;;;;;;4973612;28;20015;-89
2022/11/24 03:48:19;;;;;;;19.15;3.47;;;7.90;99.90;;;;;;4973438;28;20035;-90
2022/11/24 03:50:55;;;;;;;21.97;3.60;;;7.90;99.90;;;;;;4994534;28;20066;-90
2022/11/24 03:53:21;;;;;;;18.80;3.13;;;10.30;99.90;;;;;;4976674;28;20033;-89
2022/11/24 03:55:47;;;;;;;20.75;3.70;;;7.90;99.90;;;;;;4976370;28;20107;-88
2022/11/24 03:58:20;;;;;;;16.95;3.40;;;11.30;99.90;;;;;;5008192;23;20450;-84
2022/11/24 04:01:00;;;;;;;22.08;3.45;;;7.90;99.90;;;;;;4983785;28;20040;-84
2022/11/24 04:03:36;;;;;;;19.08;3.75;;;8.00;99.90;;;;;;4983056;28;20029;-85
2022/11/24 04:06:02;;;;;;;16.35;3.20;;;8.10;99.90;;;;;;5000528;28;20050;-84
2022/11/24 04:08:28;;;;;;;24.13;4.22;;;8.10;99.90;;;;;;4983727;28;20038;-87
2022/11/24 04:10:53;;;;;;;22.30;3.55;;;7.60;99.90;;;;;;4983678;28;20022;-85
2022/11/24 04:13:22;;;;;;;20.17;3.47;;;7.40;99.90;;;;;;4984739;28;20093;-87
2022/11/24 04:15:48;;;;;;;20.02;3.45;;;8.20;99.90;;;;;;4983211;28;20026;-87
2022/11/24 04:18:14;;;;;;;22.83;4.40;;;10.50;99.90;;;;;;4982034;28;20117;-87
2022/11/24 04:20:40;;;;;;;20.88;3.38;;;6.80;99.90;;;;;;5000035;28;20038;-85
2022/11/24 04:23:06;;;;;;;19.88;3.22;;;8.30;99.90;;;;;;4980666;28;20113;-87
2022/11/24 04:25:32;;;;;;;18.52;3.53;;;10.00;99.90;;;;;;4998633;28;20022;-87
2022/11/24 04:27:58;;;;;;;19.63;3.85;;;8.30;99.90;;;;;;4981596;28;20387;-88
2022/11/24 04:30:25;;;;;;;19.58;3.45;;;9.50;99.90;;;;;;4998699;28;20068;-86
2022/11/24 04:32:51;;;;;;;24.05;3.60;;;8.80;99.90;;;;;;4999044;28;20026;-87
2022/11/24 04:35:17;;;;;;;16.35;3.85;;;;;;;;;;4999229;28;20498;-83
2022/11/24 04:37:43;;;;;;;20.65;4.03;;;8.30;99.90;;;;;;4980633;28;20506;-87
2022/11/24 04:40:09;;;;;;;18.92;3.38;;;8.30;99.90;;;;;;5005906;28;20014;-88
2022/11/24 04:42:35;;;;;;;25.77;4.03;;;8.30;99.90;;;;;;4984101;28;20030;-84
2022/11/24 04:45:01;;;;;;;19.55;4.03;;;8.30;99.90;;;;;;4983045;28;20055;-84
2022/11/24 04:47:27;;;;;;;20.58;3.70;;;8.30;99.90;;;;;;4976988;28;20031;-86
2022/11/24 04:49:53;;;;;;;24.15;4.43;;;8.60;99.90;;;;;;4984526;28;20094;-86
2022/11/24 04:52:20;;;;;;;25.63;4.43;;;8.10;99.90;;;;;;5001742;28;20041;-86
2022/11/24 04:54:47;;;;;;;23.00;3.72;;;9.60;99.90;;;;;;4984530;28;20026;-87
2022/11/24 04:57:21;;;;;;;23.63;3.65;;;8.30;99.90;;;;;;5002003;28;20037;-85
2022/11/24 04:59:48;;;;;;;21.02;4.05;;;8.70;99.90;;;;;;4983337;28;20053;-88
2022/11/24 05:02:13;;;;;;;19.30;3.38;;;8.30;99.90;;;;;;5001857;28;20042;-85
2022/11/24 05:04:39;;;;;;;21.15;4.28;;;9.70;99.90;;;;;;4984386;28;20133;-87
2022/11/24 05:07:06;;;;;;;18.70;3.20;;;;;;;;;;4982755;28;20486;-87
2022/11/24 05:09:32;;;;;;;17.88;3.88;;;8.30;99.90;;;;;;4999985;28;20026;-86
2022/11/24 05:11:57;;;;;;;18.88;3.55;;;8.20;99.90;;;;;;5000971;28;20026;-84
2022/11/24 05:14:23;;;;;;;17.40;3.35;;;11.80;99.90;;;;;;5001946;28;20022;-88
2022/11/24 05:16:49;;;;;;;23.80;4.05;;;;;;;;;;4977978;28;20073;-84
2022/11/24 05:19:15;;;;;;;18.38;3.05;;;8.30;99.90;;;;;;4964621;28;20023;-83
2022/11/24 05:21:41;;;;;;;22.20;4.00;;;;;;;;;;4963805;28;20616;-88
2022/11/24 05:24:07;;;;;;;26.55;3.80;;;8.30;99.90;;;;;;4963845;28;20027;-86
2022/11/24 05:26:34;;;;;;;19.92;3.45;;;8.30;99.90;;;;;;4964600;28;20030;-85
2022/11/24 05:28:59;;;;;;;22.67;4.32;;;8.30;99.90;;;;;;4993053;28;20037;-88
2022/11/24 05:31:25;;;;;;;17.45;3.58;;;9.30;99.90;;;;;;5001995;28;20022;-86
2022/11/24 05:33:51;;;;;;;19.77;3.85;;;8.30;99.90;;;;;;4983976;28;20053;-86
2022/11/24 05:39:00;;;;;;;20.38;4.00;;;10.10;99.90;;;;;;5000867;28;20110;-86
2022/11/24 05:41:26;;;;;;;16.77;3.58;;;8.40;99.90;;;;;;5000847;28;20066;-87
2022/11/24 05:43:52;;;;;;;19.85;4.00;;;;;;;;;;5001377;28;20045;-84
2022/11/24 05:46:18;;;;;;;22.52;4.07;;;8.30;99.90;;;;;;4984032;28;20100;-87
2022/11/24 05:48:44;;;;;;;17.05;3.88;;;;;;;;;;4983630;28;20310;-86
2022/11/24 05:51:09;;;;;;;22.45;4.00;;;8.30;99.90;;;;;;5001437;28;20800;-87
2022/11/24 05:53:35;;;;;;;23.55;3.85;;;10.70;99.90;;;;;;4984088;28;20054;-85
2022/11/24 05:56:04;;;;;;;25.80;4.60;;;8.40;99.90;;;;;;5003769;28;20038;-89
2022/11/24 05:58:30;;;;;;;18.20;3.28;;;8.30;99.90;;;;;;5001794;28;20066;-86
2022/11/24 06:00:56;;;;;;;18.73;3.22;;;;;;;;;;4981340;28;20037;-87
2022/11/24 06:03:22;;;;;;;16.33;3.20;;;8.40;99.90;;;;;;4982449;28;20022;-86
2022/11/24 06:05:48;;;;;;;16.17;3.35;;;10.20;99.90;;;;;;5000160;28;20022;-86
2022/11/24 06:08:14;;;;;;;24.65;4.00;;;;;;;;;;4982112;28;20058;-88
2022/11/24 06:10:40;;;;;;;21.92;2.78;;;8.50;99.90;;;;;;4965634;28;20113;-87
2022/11/24 06:13:06;;;;;;;13.50;2.78;;;9.50;99.90;;;;;;4966173;28;20057;-87
2022/11/24 06:15:33;;;;;;;19.45;3.05;;;8.60;99.90;;;;;;4998120;28;20031;-83
2022/11/24 06:17:59;;;;;;;23.88;3.67;;;10.00;99.90;;;;;;4986624;28;20045;-81
2022/11/24 06:20:25;;;;;;;23.05;3.60;;;8.50;99.90;;;;;;4982354;28;20616;-85
2022/11/24 06:22:50;;;;;;;13.20;2.88;;;8.70;99.90;;;;;;4986845;28;20041;-86
2022/11/24 06:25:16;;;;;;;13.20;2.63;;;10.20;99.90;;;;;;4986243;28;20218;-81
2022/11/24 06:27:43;;;;;;;18.88;2.88;;;9.20;99.90;;;;;;5004246;28;20086;-85
2022/11/24 06:30:09;;;;;;;16.13;2.83;;;8.50;99.90;;;;;;5003709;28;20105;-86
2022/11/24 06:32:34;;;;;;;16.02;3.00;;;8.50;99.90;;;;;;4988964;28;20089;-82
2022/11/24 06:35:00;;;;;;;20.27;3.22;;;8.60;99.90;;;;;;5015124;28;20061;-87
2022/11/24 06:37:26;;;;;;;17.85;3.42;;;9.90;99.90;;;;;;4982037;28;20033;-84
2022/11/24 06:39:52;;;;;;;11.57;2.80;;;;;;;;;;4987529;28;20037;-82
2022/11/24 06:42:17;;;;;;;17.10;4.53;;;8.50;99.90;;;;;;4995980;28;20242;-87
2022/11/24 06:44:46;;;;;;;17.65;3.63;;;9.60;99.90;;;;;;4984621;28;20042;-86
2022/11/24 06:47:12;;;;;;;19.38;3.97;;;10.70;99.90;;;;;;4986281;28;20033;-84
2022/11/24 06:49:38;;;;;;;17.42;3.65;;;10.40;99.90;;;;;;5002649;28;20030;-86
2022/11/24 06:52:04;;;;;;;16.10;3.53;;;9.30;99.90;;;;;;4985766;28;20094;-84
2022/11/24 06:54:29;;;;;;;9.60;2.90;;;8.50;99.90;;;;;;4979618;28;20030;-83
2022/11/24 06:56:57;;;;;;;17.20;2.90;;;8.50;99.90;;;;;;5002778;28;20562;-87
2022/11/24 06:59:22;;;;;;;12.98;2.55;;;8.50;99.90;;;;;;5003913;28;20483;-85
2022/11/24 07:01:48;;;;;;;20.98;3.13;;;8.50;99.90;;;;;;5000382;28;20038;-86
2022/11/24 07:04:15;;;;;;;24.85;3.50;;;;;;;;;;4972062;28;20014;-86
2022/11/24 07:06:41;;;;;;;18.45;2.45;;;10.90;99.90;;;;;;4985734;28;20101;-82
2022/11/24 07:09:09;;;;;;;11.50;2.90;;;9.40;99.90;;;;;;5003255;28;20023;-86
2022/11/24 07:11:34;;;;;;;13.82;2.67;;;8.50;99.90;;;;;;4985365;28;20023;-86
2022/11/24 07:14:00;;;;;;;15.05;3.13;;;8.30;99.90;;;;;;4983101;28;20038;-86
2022/11/24 07:16:26;;;;;;;16.85;3.63;;;;;;;;;;5003032;28;20026;-86
2022/11/24 07:18:53;;;;;;;10.70;2.70;;;8.60;99.90;;;;;;4983815;28;20113;-87
2022/11/24 07:21:20;;;;;;;13.40;2.92;;;9.70;99.90;;;;;;4989349;28;20040;-86
2022/11/24 07:23:50;;;;;;;14.70;2.67;;;9.60;99.90;;;;;;5005945;28;20038;-85
2022/11/24 07:26:16;;;;;;;13.30;2.30;;;10.90;99.90;;;;;;4985513;28;20026;-86
2022/11/24 07:28:42;;;;;;;16.08;2.97;;;8.70;99.90;;;;;;4990136;28;20038;-83
2022/11/24 07:31:10;;;;;;;14.70;2.97;;;10.10;99.90;;;;;;4984569;28;20019;-87
2022/11/24 07:33:36;;;;;;;17.52;2.67;;;8.90;99.90;;;;;;4991989;28;20023;-85
2022/11/24 07:36:03;;;;;;;16.02;2.92;;;8.70;99.90;;;;;;4980819;28;20027;-85
2022/11/24 07:38:30;;;;;;;12.13;2.38;;;8.70;99.90;;;;;;4996111;28;20034;-87
2022/11/24 07:41:08;;;;;;;13.13;2.55;;;10.40;99.90;;;;;;4984959;28;20034;-88
2022/11/24 07:43:36;;;;;;;23.10;3.22;;;8.80;99.90;;;;;;4978162;28;20030;-86
2022/11/24 07:46:02;;;;;;;15.05;2.78;;;8.80;99.90;;;;;;4979953;28;20022;-84
2022/11/24 07:48:28;;;;;;;12.30;3.25;;;10.00;99.90;;;;;;4983522;28;20034;-86
2022/11/24 07:50:53;;;;;;;13.77;2.33;;;10.10;99.90;;;;;;4985797;28;20037;-86
2022/11/24 07:53:19;;;;;;;17.13;2.33;;;8.90;99.90;;;;;;4999933;28;20029;-84
2022/11/24 07:55:55;;;;;;;24.73;3.10;;;9.00;99.90;;;;;;4998622;28;20018;-88
2022/11/24 07:58:21;;;;;;;18.58;2.78;;;8.90;99.90;;;;;;4970985;28;21305;-84
2022/11/24 08:00:47;;;;;;;11.98;3.13;;;9.00;99.90;;;;;;4999276;28;20033;-86
2022/11/24 08:03:13;;;;;;;11.32;2.78;;;8.90;99.90;;;;;;5006964;28;20033;-87
2022/11/24 08:05:39;;;;;;;11.70;2.38;;;;;;;;;;4996400;28;20023;-85
2022/11/24 08:08:05;;;;;;;12.57;2.80;;;9.10;99.90;;;;;;4999264;28;20029;-82
2022/11/24 08:10:31;;;;;;;10.93;2.47;;;;;;;;;;4995113;28;20030;-85
2022/11/24 08:26:16;;;;;;;11.18;2.30;;;9.20;99.90;;;;;;4972239;28;20043;-90
2022/11/24 08:28:43;;;;;;;13.90;3.00;;;11.90;99.90;;;;;;4990816;28;20026;-90
2022/11/24 08:31:14;;;;;;;24.60;3.15;;;9.20;99.90;;;;;;4999399;28;20027;-85
2022/11/24 08:33:43;;;;;;;15.38;3.10;;;11.40;99.90;;;;;;4956428;29;20038;-88
2022/11/24 08:36:15;;;;;;;16.05;3.15;;;12.40;99.90;;;;;;4975561;28;20019;-86
2022/11/24 08:39:27;;;;;;;12.90;3.30;;;9.50;99.90;;;;;;4968980;28;20087;-88
2022/11/24 08:41:56;;;;;;;12.02;2.38;;;;;;;;;;4986395;28;20031;-87
2022/11/24 08:44:22;;;;;;;14.25;2.60;;;;;;;;;;4969091;28;20103;-87
2022/11/24 08:46:50;;;;;;;14.32;3.40;;;9.40;99.90;;;;;;4953144;29;20573;-90
2022/11/24 08:49:17;;;;;;;12.93;2.72;;;9.30;99.90;;;;;;4969684;28;20035;-85
2022/11/24 08:51:47;;;;;;;13.98;2.53;;;;;;;;;;4981408;28;20392;-90
2022/11/24 08:54:14;;;;;;;10.57;2.20;;;8.20;99.90;;;;;;4948875;29;20023;-87
2022/11/24 08:56:47;;;;;;;11.25;2.40;;;11.90;99.90;;;;;;4949483;29;20035;-90
2022/11/24 08:59:14;;;;;;;21.15;2.67;;;;;;;;;;4926751;29;20055;-87
2022/11/24 09:01:40;;;;;;;12.90;2.60;;;;;;;;;;4940355;29;20114;-88
2022/11/24 09:04:09;;;;;;;13.95;3.78;;;9.50;99.90;;;;;;4953293;29;20065;-88
2022/11/24 09:06:35;;;;;;;14.40;2.85;;;9.50;99.90;;;;;;4963841;29;20027;-88
2022/11/24 09:09:01;;;;;;;12.85;2.60;;;;;;;;;;4945443;29;20098;-87
2022/11/24 09:11:28;;;;;;;14.02;2.97;;;9.50;99.90;;;;;;4958725;28;20054;-89
2022/11/24 09:14:17;;;;;;;14.93;2.58;;;9.50;99.90;;;;;;4954915;28;20027;-89
2022/11/24 09:21:00;;;;;;;10.70;2.33;;;9.50;99.90;;;;;;4855153;29;20037;-88
2022/11/24 09:27:22;;;;;;;14.52;2.70;;;9.50;99.90;;;;;;4822093;29;20064;-87
2022/11/24 09:34:00;;;;;;;11.75;2.80;;;10.10;99.90;;;;;;4803119;29;20050;-90
2022/11/24 09:40:31;;;;;;;12.38;2.60;;;9.60;99.90;;;;;;4822840;29;20042;-91
2022/11/24 09:47:13;;;;;;;12.20;3.03;;;9.70;99.90;;;;;;4824884;29;20038;-90
2022/11/24 09:50:05;;;;;;;15.20;2.80;;;9.70;99.90;;;;;;4828046;29;20038;-89
2022/11/24 10:00:19;;;;;;;11.18;2.50;;;9.70;99.90;;;;;;4956375;29;20034;-87
2022/11/24 10:02:57;;;;;;;14.63;2.90;;;;;;;;;;4954988;29;20394;-91
2022/11/24 10:05:47;;;;;;;20.10;3.42;;;9.70;99.90;;;;;;4945433;29;20023;-88
2022/11/24 10:08:37;;;;;;;13.95;2.40;;;9.80;99.90;;;;;;4976077;29;20092;-88
2022/11/24 10:11:57;;;;;;;12.55;2.90;;;9.70;99.90;;;;;;4976417;29;20032;-88
2022/11/24 10:15:04;;;;;;;17.42;3.47;;;9.80;99.90;;;;;;4975384;29;20031;-91
2022/11/24 10:17:44;;;;;;;13.82;3.55;;;9.80;99.90;;;;;;4962359;28;20029;-89
2022/11/24 10:20:26;;;;;;;19.80;3.17;;;9.90;99.90;;;;;;4972917;28;20031;-90
2022/11/24 10:23:34;;;;;;;18.42;2.65;;;9.90;99.90;;;;;;4992398;28;20050;-93
2022/11/24 10:26:26;;;;;;;11.45;2.38;;;10.00;99.90;;;;;;4956267;28;20047;-89
2022/11/24 10:28:54;;;;;;;9.27;2.03;;;10.00;99.90;;;;;;4920571;29;20044;-87
2022/11/24 10:31:40;;;;;;;14.50;2.60;;;10.10;99.90;;;;;;4958830;28;20091;-88
2022/11/24 10:34:33;;;;;;;13.10;2.90;;;10.10;99.90;;;;;;4960347;28;20027;-90
2022/11/24 10:37:30;;;;;;;14.00;3.03;;;10.10;99.90;;;;;;4937635;28;20068;-90
2022/11/24 10:40:26;;;;;;;14.90;3.38;;;10.20;99.90;;;;;;4959148;28;20020;-86
2022/11/24 10:42:52;;;;;;;14.05;2.90;;;;;;;;;;4969363;28;20035;-91
2022/11/24 10:45:23;;;;;;;15.30;3.00;;;10.20;99.90;;;;;;4964467;28;20045;-90
2022/11/24 10:47:49;;;;;;;13.15;2.47;;;10.30;99.90;;;;;;4959887;29;20036;-94
2022/11/24 10:50:23;;;;;;;11.63;2.75;;;10.30;99.90;;;;;;4954438;28;20015;-90
2022/11/24 10:53:07;;;;;;;12.68;3.13;;;10.30;99.90;;;;;;4955719;28;20004;-90
2022/11/24 10:55:55;;;;;;;21.50;3.80;;;12.40;99.90;;;;;;4979515;28;20011;-90
2022/11/24 10:58:28;;;;;;;19.10;3.38;;;8.60;99.90;;;;;;4958689;29;20024;-92
2022/11/24 11:00:57;;;;;;;11.57;2.42;;;13.20;99.90;;;;;;4968659;28;20040;-90
2022/11/24 11:03:44;;;;;;;11.43;2.65;;;10.30;99.90;;;;;;4956803;28;20031;-91
2022/11/24 11:06:12;;;;;;;12.50;2.88;;;10.30;99.90;;;;;;4977285;29;20078;-88
2022/11/24 11:08:38;;;;;;;19.40;2.80;;;12.60;99.90;;;;;;4980426;28;20039;-88
2022/11/24 11:11:25;;;;;;;14.32;2.80;;;10.80;99.90;;;;;;4959187;28;20016;-88
2022/11/24 11:14:00;;;;;;;15.82;3.47;;;10.40;99.90;;;;;;4979772;28;20091;-87
2022/11/24 11:16:52;;;;;;;9.88;2.33;;;10.30;99.90;;;;;;4965568;28;20015;-90
2022/11/24 11:19:33;;;;;;;14.18;2.30;;;10.50;99.90;;;;;;4940956;28;20028;-87
2022/11/24 11:22:03;;;;;;;13.18;2.92;;;10.50;99.90;;;;;;4965861;28;20031;-87
2022/11/24 11:24:29;;;;;;;15.00;3.63;;;13.60;99.90;;;;;;4960437;28;20035;-89
2022/11/24 11:27:23;;;;;;;12.82;3.38;;;10.70;99.90;;;;;;4969552;28;20286;-89
2022/11/24 11:29:50;;;;;;;13.35;2.72;;;10.60;99.90;;;;;;4973119;28;20035;-86
2022/11/24 11:32:23;;;;;;;16.67;2.83;;;12.10;99.90;;;;;;4971449;28;20032;-87
2022/11/24 11:34:54;;;;;;;14.88;2.63;;;10.70;99.90;;;;;;4978953;28;20019;-89
2022/11/24 11:37:26;;;;;;;10.30;2.90;;;10.70;99.90;;;;;;4979697;28;20060;-87
2022/11/24 11:39:56;;;;;;;16.08;3.30;;;10.60;99.90;;;;;;4954356;28;20079;-90
2022/11/24 11:42:22;;;;;;;11.60;2.92;;;;;;;;;;4979525;28;20019;-88
2022/11/24 11:44:57;;;;;;;18.60;3.45;;;10.50;99.90;;;;;;4971863;28;20051;-89
2022/11/24 11:47:32;;;;;;;10.25;2.65;;;11.70;99.90;;;;;;4963254;28;20047;-88
2022/11/24 11:49:58;;;;;;;15.65;3.25;;;10.50;99.90;;;;;;4963165;28;20026;-86
2022/11/24 11:52:24;;;;;;;12.63;2.30;;;;;;;;;;4964381;28;20032;-90
2022/11/24 11:55:11;;;;;;;15.45;3.25;;;10.70;99.90;;;;;;4967765;28;20083;-88
2022/11/24 11:58:22;;;;;;;14.02;3.08;;;12.30;99.90;;;;;;4958789;28;20039;-91
2022/11/24 12:01:04;;;;;;;16.15;3.58;;;10.50;99.90;;;;;;4958750;28;20042;-91
2022/11/24 12:03:41;;;;;;;12.05;2.67;;;11.80;99.90;;;;;;4968945;28;20019;-88
2022/11/24 12:06:25;;;;;;;14.63;3.22;;;10.60;99.90;;;;;;4972898;28;20054;-90
2022/11/24 12:09:15;;;;;;;10.98;2.22;;;10.60;99.90;;;;;;4959820;28;20027;-89
2022/11/24 12:12:11;;;;;;;12.73;3.38;;;10.70;99.90;;;;;;4957278;29;20038;-86
2022/11/24 12:14:58;;;;;;;19.10;4.70;;;10.70;99.90;;;;;;4985975;28;20023;-89
2022/11/24 12:17:52;;;;;;;14.80;2.28;;;10.70;99.90;;;;;;4980458;28;20019;-89
2022/11/24 12:20:37;;;;;;;10.52;2.60;;;10.80;99.90;;;;;;4957617;29;20051;-88
2022/11/24 12:23:50;;;;;;;14.23;2.15;;;10.90;99.90;;;;;;4962326;29;20360;-89
2022/11/24 12:27:06;;;;;;;14.55;2.65;;;10.90;99.90;;;;;;4944833;29;20106;-90
2022/11/24 12:30:25;;;;;;;13.07;1.90;;;10.70;99.90;;;;;;4933912;29;20051;-91
2022/11/24 12:33:36;;;;;;;11.40;2.67;;;10.90;99.90;;;;;;4946409;29;20024;-89
2022/11/24 12:36:40;;;;;;;15.80;2.90;;;9.80;99.90;;;;;;4948686;29;20039;-90
2022/11/24 12:39:49;;;;;;;16.77;2.72;;;11.00;99.90;;;;;;4966211;29;20039;-90
2022/11/24 12:42:47;;;;;;;12.32;2.55;;;11.00;99.90;;;;;;4969365;28;20031;-91
2022/11/24 12:45:51;;;;;;;14.60;2.92;;;11.00;99.90;;;;;;4974900;28;20058;-90
2022/11/24 12:48:29;;;;;;;11.30;2.28;;;10.90;99.90;;;;;;4951633;29;20043;-90
2022/11/24 12:51:27;;;;;;;15.32;2.40;;;10.90;99.90;;;;;;4940784;29;20030;-89
2022/11/24 12:54:20;;;;;;;13.70;2.60;;;10.80;99.90;;;;;;4952554;29;20051;-90
2022/11/24 13:30:34;;;;;;;12.27;2.35;;;11.00;99.90;;;;;;4984945;28;20123;-89
2022/11/24 13:33:15;;;;;;;10.48;2.40;;;12.20;99.90;;;;;;4964648;28;20103;-89
2022/11/24 13:36:01;;;;;;;13.98;2.38;;;10.30;99.90;;;;;;4965167;29;20036;-88
2022/11/24 13:38:48;;;;;;;10.40;1.83;;;9.20;99.90;;;;;;4965991;28;20027;-86
2022/11/24 13:41:33;;;;;;;12.25;4.05;;;11.20;99.90;;;;;;4964994;28;20030;-90
2022/11/24 13:44:14;;;;;;;10.07;2.20;;;11.40;99.90;;;;;;4969883;29;20020;-88
2022/11/24 13:47:47;;;;;;;11.88;2.35;;;11.30;99.90;;;;;;4968789;28;20035;-90
2022/11/24 13:50:53;;;;;;;12.02;2.20;;;11.40;99.90;;;;;;4948561;28;20040;-89
2022/11/24 13:54:18;;;;;;;10.13;1.98;;;9.30;99.90;;;;;;4984930;28;20029;-88
2022/11/24 13:56:43;;;;;;;11.95;2.40;;;10.40;99.90;;;;;;4968527;28;20054;-88
2022/11/24 14:00:02;;;;;;;10.93;2.30;;;11.50;99.90;;;;;;4962321;28;20043;-90
2022/11/24 14:13:29;;;;;;;12.05;2.28;;;11.40;99.90;;;;;;4992042;28;20051;-90
2022/11/24 14:16:27;;;;;;;13.10;2.00;;;11.50;99.90;;;;;;4973915;28;20039;-91
2022/11/24 14:22:59;;;;;;;10.65;2.38;;;11.40;99.90;;;;;;4976286;28;20065;-91
2022/11/24 14:25:32;;;;;;;12.32;2.03;;;11.30;99.90;;;;;;4985166;28;20019;-91
2022/11/24 16:00:44;;;;;;;10.80;2.72;;;10.10;99.90;;;;;;4983698;26;20046;-87
2022/11/24 20:10:54;;;;;;;15.02;5.50;;;7.60;99.90;;;;;;4979110;28;20115;-83
2022/11/24 20:13:48;;;;;;;13.35;5.90;;;7.50;99.90;;;;;;4997906;28;20030;-87
2022/11/24 20:16:44;;;;;;;20.27;6.90;;;7.50;99.90;;;;;;4998934;28;20026;-85
2022/11/24 20:20:01;;;;;;;18.55;6.20;;;7.40;99.90;;;;;;4975251;28;20030;-84
2022/11/24 20:23:16;;;;;;;18.88;5.80;;;7.40;99.90;;;;;;4997961;28;20030;-85
2022/11/24 20:25:46;;;;;;;18.85;6.10;;;7.40;99.90;;;;;;4977373;28;20045;-87
2022/11/24 20:28:12;;;;;;;16.80;6.55;;;7.30;99.90;;;;;;4988875;28;20042;-85
2022/11/24 20:30:39;;;;;;;21.85;7.63;;;7.30;99.90;;;;;;4986341;28;20022;-85
2022/11/24 20:33:06;;;;;;;22.23;7.47;;;8.50;99.90;;;;;;4985963;28;20090;-83
2022/11/24 20:35:32;;;;;;;21.58;7.18;;;7.20;99.90;;;;;;5001321;28;20032;-86
2022/11/24 20:38:00;;;;;;;13.05;6.57;;;7.20;99.90;;;;;;4983231;28;20058;-83